Time;durP1;ratioP1;P1;durP2;ratioP2;P2;SDS_P1;SDS_P2;PMS_P1;PMS_P2;Temp;Humidity;BMP_temperature;BMP_pressure;BME280_temperature;BME280_humidity;BME280_pressure;Samples;Min_cycle;Max_cycle;Signal;HPM_P1;HPM_P2
2021/05/17 00:01:41;;;;;;;22.57;8.30;;;;;;;7.57;100.00;99489.22;5031386;28;20613;-74
2021/05/17 00:04:07;;;;;;;15.83;7.40;;;;;;;7.60;100.00;99486.38;5031318;28;20214;-74
2021/05/17 00:06:32;;;;;;;17.20;8.13;;;;;;;7.60;100.00;99486.38;5031250;28;20213;-74
2021/05/17 00:08:58;;;;;;;18.37;7.33;;;;;;;7.64;100.00;99490.53;5032391;28;20257;-73
2021/05/17 00:11:24;;;;;;;11.83;6.37;;;;;;;7.69;100.00;99493.75;5032817;28;20172;-74
2021/05/17 00:13:50;;;;;;;13.87;6.17;;;;;;;7.79;100.00;99494.88;5032520;28;20183;-75
2021/05/17 00:16:16;;;;;;;15.97;6.00;;;;;;;7.81;100.00;99489.50;5031216;28;20199;-75
2021/05/17 00:18:41;;;;;;;15.80;6.70;;;;;;;7.82;100.00;99499.19;5032726;28;20191;-74
2021/05/17 00:21:08;;;;;;;13.33;5.60;;;;;;;7.80;100.00;99493.97;5031322;28;20180;-75
2021/05/17 00:23:34;;;;;;;9.97;5.47;;;;;;;7.77;100.00;99482.66;5015338;28;20190;-74
2021/05/17 00:25:59;;;;;;;10.77;5.30;;;;;;;7.71;100.00;99483.88;5014655;28;20199;-73
2021/05/17 00:28:25;;;;;;;8.57;5.53;;;;;;;7.71;100.00;99486.53;5033651;28;20217;-74
2021/05/17 00:30:50;;;;;;;7.10;4.70;;;;;;;7.67;100.00;99489.50;5035341;28;20233;-74
2021/05/17 00:33:15;;;;;;;9.73;5.47;;;;;;;7.66;100.00;99491.28;5036868;28;20194;-74
2021/05/17 00:35:41;;;;;;;10.07;5.87;;;;;;;7.66;100.00;99483.31;5036360;28;20310;-75
2021/05/17 00:38:06;;;;;;;11.37;5.70;;;;;;;7.64;100.00;99487.88;5034632;28;20182;-75
2021/05/17 00:40:32;;;;;;;11.83;6.27;;;;;;;7.64;100.00;99487.88;5034581;28;20540;-74
2021/05/17 00:42:57;;;;;;;8.30;5.80;;;;;;;7.63;100.00;99483.50;5034610;28;20175;-74
2021/05/17 00:45:23;;;;;;;10.60;5.83;;;;;;;7.67;100.00;99482.38;5035521;28;20248;-75
2021/05/17 00:47:51;;;;;;;12.67;5.93;;;;;;;7.60;100.00;99482.84;5035511;28;20553;-76
2021/05/17 00:50:20;;;;;;;12.30;6.10;;;;;;;7.61;100.00;99480.09;5034431;28;20244;-74
2021/05/17 00:52:46;;;;;;;13.77;6.77;;;;;;;7.57;100.00;99483.03;5034388;28;20276;-75
2021/05/17 00:55:11;;;;;;;8.80;6.40;;;;;;;7.59;100.00;99474.03;5017698;28;20207;-75
2021/05/17 00:57:37;;;;;;;9.27;5.57;;;;;;;7.58;100.00;99472.34;5017523;28;20640;-74
2021/05/17 01:00:11;;;;;;;11.67;5.53;;;;;;;7.56;100.00;99479.53;5033883;28;20191;-74
2021/05/17 01:02:36;;;;;;;11.63;5.80;;;;;;;7.56;100.00;99468.06;5035532;28;20616;-74
2021/05/17 01:05:04;;;;;;;12.33;6.70;;;;;;;7.53;100.00;99455.84;5034016;28;20250;-74
2021/05/17 01:07:30;;;;;;;11.43;6.10;;;;;;;7.50;100.00;99461.34;5033813;28;20215;-74
2021/05/17 01:09:57;;;;;;;8.90;5.47;;;;;;;7.49;100.00;99462.28;5034110;28;20183;-73
2021/05/17 01:12:24;;;;;;;8.50;5.00;;;;;;;7.57;100.00;99467.97;5017402;28;20580;-74
2021/05/17 01:14:52;;;;;;;10.67;5.30;;;;;;;7.55;100.00;99469.88;5034482;28;20745;-73
2021/05/17 01:17:18;;;;;;;14.40;5.70;;;;;;;7.49;100.00;99468.44;5017136;28;20188;-74
2021/05/17 01:19:52;;;;;;;12.57;6.13;;;;;;;7.46;100.00;99459.81;5017434;28;20610;-74
2021/05/17 01:22:24;;;;;;;21.17;8.87;;;;;;;7.52;100.00;99470.91;5033879;28;20167;-74
2021/05/17 01:24:49;;;;;;;19.17;7.27;;;;;;;7.50;100.00;99467.50;5017773;28;20199;-74
2021/05/17 01:27:15;;;;;;;22.67;8.63;;;;;;;7.52;100.00;99470.06;5033817;28;20228;-74
2021/05/17 01:29:41;;;;;;;18.23;8.27;;;;;;;7.51;100.00;99465.69;5034119;28;20255;-75
2021/05/17 01:32:08;;;;;;;23.43;9.17;;;;;;;7.51;100.00;99469.22;5033929;28;20169;-74
2021/05/17 01:34:36;;;;;;;23.03;9.33;;;;;;;7.49;100.00;99475.56;5034727;28;20695;-74
2021/05/17 01:37:01;;;;;;;10.97;7.07;;;;;;;7.44;100.00;99475.00;5033709;28;20191;-75
2021/05/17 01:39:27;;;;;;;22.13;8.57;;;;;;;7.42;100.00;99463.59;5034319;28;20179;-75
2021/05/17 01:41:53;;;;;;;34.03;11.27;;;;;;;7.41;100.00;99465.38;5016843;28;20275;-75
2021/05/17 01:44:21;;;;;;;26.70;10.27;;;;;;;7.42;100.00;99472.41;5033315;28;20175;-74
2021/05/17 01:46:48;;;;;;;27.73;10.43;;;;;;;7.39;100.00;99466.44;5033749;28;20616;-75
2021/05/17 01:49:14;;;;;;;24.53;9.10;;;;;;;7.37;100.00;99473.63;5017150;28;20210;-74
2021/05/17 01:51:43;;;;;;;25.17;9.30;;;;;;;7.35;100.00;99462.25;5033582;28;20193;-76
2021/05/17 01:54:09;;;;;;;21.93;8.27;;;;;;;7.30;100.00;99464.34;5033379;28;20172;-75
2021/05/17 01:56:34;;;;;;;17.77;7.27;;;;;;;7.24;100.00;99456.75;5032898;28;20587;-75
2021/05/17 01:59:00;;;;;;;13.07;6.70;;;;;;;7.18;100.00;99450.88;5033514;28;20187;-76
2021/05/17 02:01:25;;;;;;;13.10;6.77;;;;;;;7.17;100.00;99448.34;5033057;28;20175;-75
2021/05/17 02:03:51;;;;;;;15.80;7.10;;;;;;;7.14;100.00;99449.38;5033379;28;20341;-75
2021/05/17 02:06:17;;;;;;;10.67;6.37;;;;;;;7.14;100.00;99448.53;5033928;28;20199;-75
2021/05/17 02:08:44;;;;;;;14.90;7.63;;;;;;;7.16;100.00;99446.63;5032886;28;20258;-75
2021/05/17 02:11:11;;;;;;;19.10;7.70;;;;;;;7.19;100.00;99452.59;5016485;28;20215;-75
2021/05/17 02:13:38;;;;;;;18.73;9.10;;;;;;;7.20;100.00;99449.00;5032750;28;20226;-73
2021/05/17 02:16:04;;;;;;;15.50;7.83;;;;;;;7.17;100.00;99451.84;5034047;28;20191;-75
2021/05/17 02:18:29;;;;;;;12.87;7.67;;;;;;;7.13;100.00;99458.28;5034066;28;20172;-74
2021/05/17 02:20:55;;;;;;;14.37;8.13;;;;;;;7.12;100.00;99456.56;5032762;28;20184;-74
2021/05/17 02:23:20;;;;;;;19.20;8.60;;;;;;;7.10;100.00;99454.97;5034232;28;20194;-75
2021/05/17 02:25:48;;;;;;;12.70;6.93;;;;;;;7.03;100.00;99461.56;5034091;28;20282;-76
2021/05/17 02:28:14;;;;;;;13.17;6.73;;;;;;;6.98;100.00;99464.50;5033033;28;20196;-74
2021/05/17 02:30:40;;;;;;;10.90;6.10;;;;;;;6.90;100.00;99461.44;5032657;28;20517;-75
2021/05/17 02:33:06;;;;;;;13.70;7.20;;;;;;;6.81;100.00;99456.69;5016461;28;20183;-76
2021/05/17 02:35:32;;;;;;;12.73;6.47;;;;;;;6.77;100.00;99450.72;5032841;28;20325;-75
2021/05/17 02:37:57;;;;;;;15.80;7.70;;;;;;;6.79;100.00;99454.13;5016035;28;20179;-75
2021/05/17 02:40:23;;;;;;;29.87;10.53;;;;;;;6.88;100.00;99448.28;5033458;28;20214;-74
2021/05/17 02:42:49;;;;;;;33.63;12.93;;;;;;;6.94;100.00;99449.69;5032242;28;20179;-74
2021/05/17 02:45:17;;;;;;;36.00;13.60;;;;;;;6.96;100.00;99450.47;5033367;28;20210;-76
2021/05/17 02:47:43;;;;;;;34.27;12.23;;;;;;;6.96;100.00;99455.78;5033276;28;20214;-74
2021/05/17 02:50:11;;;;;;;26.67;10.23;;;;;;;6.92;100.00;99453.41;5033225;28;20178;-75
2021/05/17 02:52:37;;;;;;;24.00;10.37;;;;;;;6.90;100.00;99454.34;5031873;28;20202;-74
2021/05/17 02:55:08;;;;;;;25.17;10.53;;;;;;;6.92;100.00;99454.25;5032146;28;20210;-75
2021/05/17 02:57:49;;;;;;;20.93;8.53;;;;;;;6.92;100.00;99448.94;5033426;28;20175;-74
2021/05/17 03:00:18;;;;;;;18.97;8.37;;;;;;;6.98;100.00;99448.56;5032425;28;20252;-73
2021/05/17 03:03:02;;;;;;;13.80;8.23;;;;;;;7.08;100.00;99462.16;5033243;28;20196;-73
2021/05/17 03:05:30;;;;;;;15.13;9.33;;;;;;;7.34;100.00;99466.72;5033237;28;20656;-74
2021/05/17 03:08:01;;;;;;;26.43;11.23;;;;;;;7.38;100.00;99472.69;5032003;28;20231;-74
2021/05/17 03:10:28;;;;;;;30.67;10.70;;;;;;;7.36;100.00;99477.25;5032450;28;20573;-73
2021/05/17 03:13:11;;;;;;;24.17;10.67;;;;;;;7.32;100.00;99475.72;5032444;28;20536;-73
2021/05/17 03:15:38;;;;;;;23.63;9.73;;;;;;;7.28;100.00;99480.38;5031827;28;20201;-74
2021/05/17 03:18:03;;;;;;;20.30;9.17;;;;;;;7.27;100.00;99488.41;5032053;28;20227;-74
2021/05/17 03:20:28;;;;;;;17.50;8.87;;;;;;;7.26;100.00;99484.06;5033489;28;20191;-75
2021/05/17 03:22:56;;;;;;;15.57;8.17;;;;;;;7.27;100.00;99478.66;5032011;28;20191;-74
2021/05/17 03:25:34;;;;;;;18.03;7.17;;;;;;;7.22;100.00;99484.25;5031797;28;20241;-74
2021/05/17 03:28:00;;;;;;;14.80;7.47;;;;;;;7.18;100.00;99482.72;5015484;28;20565;-75
2021/05/17 03:30:25;;;;;;;19.47;6.97;;;;;;;7.12;100.00;99479.59;5031959;28;20186;-74
2021/05/17 03:32:51;;;;;;;16.53;7.03;;;;;;;7.09;100.00;99475.34;5015322;28;20648;-73
2021/05/17 03:35:17;;;;;;;12.30;7.00;;;;;;;7.15;100.00;99482.06;5032984;28;20199;-73
2021/05/17 03:37:43;;;;;;;15.27;7.80;;;;;;;7.37;100.00;99481.59;5031683;28;20269;-73
2021/05/17 03:40:09;;;;;;;16.67;8.07;;;;;;;7.55;100.00;99474.31;5015154;28;20694;-73
2021/05/17 03:42:36;;;;;;;16.37;8.13;;;;;;;7.65;100.00;99483.41;5031623;28;20500;-73
2021/05/17 03:45:03;;;;;;;20.33;8.63;;;;;;;7.70;100.00;99484.84;5054167;22;20242;-70
2021/05/17 03:47:28;;;;;;;15.10;7.33;;;;;;;7.72;100.00;99487.41;5032716;28;20195;-71
2021/05/17 03:49:54;;;;;;;16.50;7.57;;;;;;;7.72;100.00;99487.41;5031616;28;20241;-72
2021/05/17 03:52:19;;;;;;;13.57;7.70;;;;;;;7.74;100.00;99491.66;5031384;28;20179;-71
2021/05/17 03:54:44;;;;;;;14.37;6.43;;;;;;;7.56;100.00;99491.97;5032869;28;20245;-71
2021/05/17 03:57:10;;;;;;;9.50;6.13;;;;;;;7.83;100.00;99495.56;5031369;28;20182;-70
2021/05/17 03:59:36;;;;;;;12.60;6.77;;;;;;;7.84;100.00;99498.13;5032885;28;20171;-71
2021/05/17 04:02:01;;;;;;;12.40;6.20;;;;;;;7.75;100.00;99493.38;5033001;28;20714;-71
2021/05/17 04:04:28;;;;;;;12.00;6.90;;;;;;;7.77;100.00;99493.28;5036853;28;20216;-71
2021/05/17 04:07:04;;;;;;;12.47;6.43;;;;;;;7.75;100.00;99492.50;5037635;28;20228;-70
2021/05/17 04:12:33;;;;;;;13.33;6.83;;;;;;;7.72;100.00;99492.72;5020104;28;20188;-72
2021/05/17 04:13:18;;;;;;;11.53;6.13;;;;;;;7.70;100.00;99506.09;5036492;28;20171;-71
2021/05/17 04:15:18;;;;;;;8.30;5.80;;;;;;;7.80;100.00;99501.03;5036245;28;20667;-71
2021/05/17 04:17:43;;;;;;;15.10;6.87;;;;;;;7.79;100.00;99507.31;5036679;28;20183;-71
2021/05/17 04:20:09;;;;;;;11.90;7.20;;;;;;;7.82;100.00;99501.84;5038796;28;20586;-71
2021/05/17 04:22:34;;;;;;;10.40;6.27;;;;;;;7.91;100.00;99508.38;5036433;28;20254;-71
2021/05/17 04:24:59;;;;;;;11.57;7.13;;;;;;;7.94;100.00;99508.16;5037598;28;20207;-71
2021/05/17 04:27:24;;;;;;;9.80;6.73;;;;;;;7.91;100.00;99509.22;5037477;28;20552;-71
2021/05/17 04:29:50;;;;;;;8.80;6.47;;;;;;;7.99;100.00;99512.25;5038647;28;20183;-71
2021/05/17 04:32:15;;;;;;;13.87;6.50;;;;;;;7.95;100.00;99523.16;5055523;28;20190;-71
2021/05/17 04:34:40;;;;;;;11.17;6.50;;;;;;;8.09;100.00;99517.81;5053287;28;20176;-70
2021/05/17 04:37:06;;;;;;;10.77;6.97;;;;;;;8.18;100.00;99527.00;5036680;28;20189;-72
2021/05/17 04:39:31;;;;;;;12.23;6.63;;;;;;;8.16;100.00;99524.44;5055259;28;20238;-72
2021/05/17 04:41:56;;;;;;;11.97;6.10;;;;;;;8.23;100.00;99528.44;5049329;28;20179;-71
2021/05/17 04:44:22;;;;;;;7.87;6.20;;;;;;;8.24;100.00;99530.16;5042676;28;20183;-72
2021/05/17 04:46:50;;;;;;;15.20;5.60;;;;;;;8.32;100.00;99524.34;5042880;28;20207;-72
2021/05/17 04:49:15;;;;;;;11.83;6.00;;;;;;;8.38;100.00;99523.97;5041021;28;20191;-70
2021/05/17 04:51:41;;;;;;;9.87;5.57;;;;;;;8.44;100.00;99535.06;5038270;28;20680;-70
2021/05/17 04:54:06;;;;;;;7.13;5.47;;;;;;;8.46;100.00;99533.16;5044181;28;20179;-71
2021/05/17 04:56:31;;;;;;;11.17;5.80;;;;;;;8.48;100.00;99534.84;5036085;28;20199;-71
2021/05/17 04:58:57;;;;;;;10.60;5.67;;;;;;;8.46;100.00;99538.47;5017932;28;20171;-71
2021/05/17 05:01:22;;;;;;;10.63;5.77;;;;;;;8.49;100.00;99544.53;5034331;28;20234;-72
2021/05/17 05:03:47;;;;;;;10.67;5.17;;;;;;;8.45;100.00;99541.22;5035623;28;20536;-71
2021/05/17 05:06:12;;;;;;;10.23;5.40;;;;;;;8.54;100.00;99537.13;5035572;28;20196;-72
2021/05/17 05:08:38;;;;;;;12.33;7.40;;;;;;;8.59;100.00;99540.34;5035871;28;20188;-72
2021/05/17 05:11:03;;;;;;;11.33;6.70;;;;;;;8.64;100.00;99547.06;5035721;28;20188;-71
2021/05/17 05:13:28;;;;;;;10.30;5.57;;;;;;;8.63;100.00;99547.19;5035454;28;20567;-71
2021/05/17 05:15:54;;;;;;;6.90;5.70;;;;;;;8.66;100.00;99547.81;5033933;28;20192;-72
2021/05/17 05:18:19;;;;;;;15.10;9.33;;;;;;;8.69;100.00;99541.44;5034231;28;20175;-72
2021/05/17 05:20:45;;;;;;;10.83;6.30;;;;;;;8.75;100.00;99549.88;5035718;28;20195;-71
2021/05/17 05:23:14;;;;;;;10.47;6.70;;;;;;;8.78;100.00;99552.34;5035333;28;20172;-71
2021/05/17 05:28:26;;;;;;;11.60;6.00;;;;;;;8.83;100.00;99544.03;5035509;28;20268;-70
2021/05/17 05:30:58;;;;;;;13.93;6.77;;;;;;;8.90;100.00;99539.16;5034346;28;20548;-71
2021/05/17 05:33:23;;;;;;;14.53;6.30;;;;;;;8.90;100.00;99545.34;5035311;28;20264;-72
2021/05/17 05:35:49;;;;;;;9.60;6.10;;;;;;;8.88;100.00;99539.28;5035038;28;20735;-72
2021/05/17 05:38:14;;;;;;;11.33;7.10;;;;;;;8.89;100.00;99551.63;5043894;28;20168;-72
2021/05/17 05:40:40;;;;;;;10.60;6.97;;;;;;;8.92;100.00;99554.09;5037689;28;20172;-73
2021/05/17 05:43:05;;;;;;;10.73;6.10;;;;;;;8.93;100.00;99558.47;5037263;28;20172;-72
2021/05/17 05:45:34;;;;;;;9.67;6.23;;;;;;;8.96;100.00;99558.25;5036180;28;20246;-73
2021/05/17 05:48:00;;;;;;;9.33;6.10;;;;;;;9.05;100.00;99552.31;5035664;28;20224;-72
2021/05/17 05:50:25;;;;;;;18.77;11.00;;;;;;;9.17;100.00;99552.44;5035565;28;20187;-72
2021/05/17 05:52:51;;;;;;;11.17;6.87;;;;;;;9.28;100.00;99556.09;5035322;28;20176;-72
2021/05/17 05:55:17;;;;;;;11.20;6.50;;;;;;;9.45;100.00;99560.28;5035513;28;20734;-73
2021/05/17 05:57:43;;;;;;;9.57;6.07;;;;;;;9.50;100.00;99560.81;5035866;28;20184;-72
2021/05/17 06:00:12;;;;;;;8.97;6.10;;;;;;;9.69;100.00;99571.94;5034725;28;20258;-73
2021/05/17 06:02:38;;;;;;;11.93;7.00;;;;;;;9.96;100.00;99565.59;5035325;28;20181;-72
2021/05/17 06:05:06;;;;;;;11.90;6.97;;;;;;;10.27;100.00;99557.19;5035777;28;20249;-72
2021/05/17 06:07:31;;;;;;;10.23;4.70;;;;;;;9.95;100.00;99550.56;5033966;28;20191;-73
2021/05/17 06:09:56;;;;;;;5.53;4.57;;;;;;;10.06;100.00;99547.19;5034764;28;20177;-74
2021/05/17 06:12:22;;;;;;;9.57;4.20;;;;;;;9.80;100.00;99546.34;5035978;28;20181;-73
2021/05/17 06:14:52;;;;;;;6.37;3.80;;;;;;;10.18;100.00;99552.47;5034448;28;20172;-73
2021/05/17 06:17:17;;;;;;;10.90;4.93;;;;;;;10.21;100.00;99560.28;5034311;28;20263;-73
2021/05/17 06:19:43;;;;;;;9.33;4.07;;;;;;;10.39;100.00;99575.91;5035407;28;20208;-74
2021/05/17 06:22:08;;;;;;;9.93;4.30;;;;;;;9.93;100.00;99557.81;5034552;28;20255;-74
2021/05/17 06:24:34;;;;;;;12.50;4.00;;;;;;;9.60;100.00;99543.22;5034937;28;20552;-73
2021/05/17 06:27:00;;;;;;;8.70;5.03;;;;;;;9.73;100.00;99553.91;5033752;28;20604;-71
2021/05/17 06:29:25;;;;;;;8.83;5.47;;;;;;;9.85;100.00;99561.03;5033899;28;20193;-72
2021/05/17 06:31:51;;;;;;;9.97;5.17;;;;;;;9.77;100.00;99562.53;5033836;28;20192;-73
2021/05/17 06:34:17;;;;;;;7.27;4.70;;;;;;;9.72;100.00;99562.88;5033214;28;20184;-73
2021/05/17 06:36:42;;;;;;;10.60;4.77;;;;;;;9.55;100.00;99563.16;5035068;28;20297;-73
2021/05/17 06:39:09;;;;;;;10.37;4.70;;;;;;;9.54;100.00;99553.47;5034474;28;20242;-74
2021/05/17 06:41:35;;;;;;;9.57;5.27;;;;;;;9.66;100.00;99563.25;5035544;28;20174;-73
2021/05/17 06:44:01;;;;;;;9.00;4.70;;;;;;;9.81;100.00;99558.69;5035094;28;20176;-73
2021/05/17 06:46:26;;;;;;;7.83;5.43;;;;;;;9.85;100.00;99561.03;5034493;28;20722;-73
2021/05/17 06:48:52;;;;;;;16.00;5.93;;;;;;;10.15;100.00;99567.84;5034539;28;20193;-73
2021/05/17 06:51:18;;;;;;;7.27;5.03;;;;;;;10.17;100.00;99571.25;5034291;28;20649;-74
2021/05/17 06:53:44;;;;;;;7.50;5.00;;;;;;;10.28;100.00;99572.22;5018172;28;20180;-73
2021/05/17 06:56:41;;;;;;;7.97;4.30;;;;;;;10.31;100.00;99574.66;5034533;28;20211;-74
2021/05/17 06:58:59;;;;;;;6.13;4.80;;;;;;;10.38;100.00;99579.53;5033290;28;20337;-72
2021/05/17 07:01:28;;;;;;;10.17;4.37;;;;;;;10.55;100.00;99589.88;5032688;28;20243;-73
2021/05/17 07:03:55;;;;;;;10.37;4.10;;;;;;;10.78;100.00;99590.84;5032726;28;20179;-72
2021/05/17 07:06:23;;;;;;;7.60;4.07;;;;;;;10.83;100.00;99594.91;5017050;28;20195;-73
2021/05/17 07:11:45;;;;;;;8.03;3.37;;;;;;;11.16;100.00;99593.38;5032095;28;20236;-73
2021/05/17 07:14:10;;;;;;;3.87;2.57;;;;;;;10.93;95.92;99593.25;5033386;28;20159;-73
2021/05/17 07:16:35;;;;;;;5.03;3.17;;;;;;;10.65;98.83;99596.25;5033165;28;20192;-74
2021/05/17 07:19:01;;;;;;;4.83;3.07;;;;;;;10.89;100.00;99602.47;5032157;28;20176;-74
2021/05/17 07:24:10;;;;;;;5.00;3.13;;;;;;;11.64;94.07;99590.63;5032632;28;20251;-74
2021/05/17 07:26:36;;;;;;;5.37;3.03;;;;;;;12.19;94.21;99600.56;5031691;28;20243;-74
2021/05/17 07:29:03;;;;;;;5.10;2.47;;;;;;;12.52;86.76;99589.00;5033125;28;20196;-74
2021/05/17 07:31:28;;;;;;;4.87;2.27;;;;;;;12.46;85.78;99605.56;5032289;28;20176;-74
2021/05/17 07:33:54;;;;;;;5.77;1.63;;;;;;;12.49;83.50;99594.59;5032093;28;20591;-75
2021/05/17 07:36:19;;;;;;;3.40;1.60;;;;;;;12.56;79.63;99600.31;5033122;28;20675;-74
2021/05/17 07:38:44;;;;;;;4.27;1.90;;;;;;;12.73;86.75;99602.50;5033791;28;20164;-74
2021/05/17 07:41:10;;;;;;;4.67;2.33;;;;;;;12.83;83.04;99608.78;5035661;28;20179;-72
2021/05/17 07:43:35;;;;;;;3.77;2.20;;;;;;;12.65;79.37;99611.16;5036996;28;20176;-72
2021/05/17 07:46:00;;;;;;;3.13;1.80;;;;;;;12.92;79.79;99612.53;5035655;28;20209;-75
2021/05/17 07:48:26;;;;;;;2.43;2.00;;;;;;;12.98;76.75;99609.34;5037333;28;20660;-75
2021/05/17 07:50:51;;;;;;;5.73;2.47;;;;;;;13.39;77.16;99614.03;5035851;28;20689;-75
2021/05/17 07:53:17;;;;;;;2.33;1.73;;;;;;;13.51;73.81;99609.44;5036297;28;20200;-75
2021/05/17 07:55:42;;;;;;;5.27;1.70;;;;;;;12.92;76.41;99618.75;5036734;28;20188;-75
2021/05/17 07:58:08;;;;;;;1.97;1.73;;;;;;;12.90;76.33;99611.81;5037459;28;20234;-75
2021/05/17 08:00:33;;;;;;;4.20;1.47;;;;;;;13.25;76.93;99611.63;5036701;28;20529;-75
2021/05/17 08:02:59;;;;;;;3.40;1.80;;;;;;;13.61;74.03;99610.38;5036256;28;20268;-75
2021/05/17 08:05:25;;;;;;;2.83;1.70;;;;;;;13.71;73.95;99609.44;5036383;28;20286;-75
2021/05/17 08:07:50;;;;;;;2.23;1.33;;;;;;;13.76;74.17;99606.41;5037388;28;20248;-75
2021/05/17 08:10:16;;;;;;;4.80;1.50;;;;;;;13.72;72.40;99612.97;5019490;28;20180;-75
2021/05/17 08:12:42;;;;;;;4.60;1.50;;;;;;;14.05;70.83;99626.19;5035924;28;20263;-75
2021/05/17 08:15:08;;;;;;;1.97;1.27;;;;;;;13.30;70.95;99617.44;5036981;28;20279;-75
2021/05/17 08:17:33;;;;;;;2.57;1.27;;;;;;;13.15;70.53;99620.41;5037173;28;20168;-75
2021/05/17 08:20:00;;;;;;;5.27;1.63;;;;;;;13.42;73.34;99619.13;5035620;28;20180;-75
2021/05/17 08:22:25;;;;;;;4.30;1.40;;;;;;;13.92;71.76;99624.69;5036032;28;20184;-75
2021/05/17 08:24:50;;;;;;;3.50;1.60;;;;;;;13.99;71.69;99618.66;5037497;28;20180;-74
2021/05/17 08:27:16;;;;;;;3.17;1.50;;;;;;;13.92;71.25;99622.00;5037280;28;20201;-75
2021/05/17 08:29:42;;;;;;;3.73;1.73;;;;;;;13.72;72.92;99623.69;5037932;28;20556;-74
2021/05/17 08:32:09;;;;;;;4.77;1.60;;;;;;;13.69;72.75;99613.25;5019734;28;20191;-75
2021/05/17 08:34:35;;;;;;;8.27;3.13;;;;;;;14.02;70.91;99626.44;5036580;28;20236;-74
2021/05/17 08:37:01;;;;;;;5.50;1.60;;;;;;;13.75;70.80;99623.44;5035636;28;20200;-75
2021/05/17 08:39:26;;;;;;;2.67;1.50;;;;;;;14.35;70.06;99633.41;5036794;28;20165;-75
2021/05/17 08:41:51;;;;;;;2.67;1.47;;;;;;;14.04;68.45;99629.84;5035790;28;20545;-74
2021/05/17 08:44:17;;;;;;;2.30;1.30;;;;;;;13.92;69.03;99624.69;5037020;28;20173;-73
2021/05/17 08:46:47;;;;;;;2.93;1.10;;;;;;;14.16;68.07;99624.44;5035825;28;20212;-75
2021/05/17 08:49:16;;;;;;;2.93;1.00;;;;;;;14.22;66.80;99627.41;5019252;28;20199;-76
2021/05/17 08:51:42;;;;;;;5.33;1.27;;;;;;;14.07;67.23;99628.72;5035999;28;20187;-76
2021/05/17 08:54:09;;;;;;;3.07;1.00;;;;;;;13.85;66.54;99628.91;5037251;28;20172;-76
2021/05/17 08:56:35;;;;;;;3.10;1.10;;;;;;;14.23;67.80;99629.13;5036560;28;20676;-75
2021/05/17 08:59:04;;;;;;;1.80;1.10;;;;;;;14.06;67.73;99625.19;5036357;28;20170;-75
2021/05/17 09:01:30;;;;;;;3.33;1.10;;;;;;;14.20;64.76;99623.19;5037213;28;20323;-75
2021/05/17 09:03:56;;;;;;;4.83;1.33;;;;;;;14.31;63.33;99620.41;5038058;28;20653;-75
2021/05/17 09:06:23;;;;;;;3.73;1.10;;;;;;;14.22;63.99;99623.88;5036216;28;20224;-75
2021/05/17 09:08:48;;;;;;;2.20;1.10;;;;;;;14.73;62.20;99626.53;5035732;28;20542;-75
2021/05/17 09:11:29;;;;;;;1.77;0.83;;;;;;;15.11;60.91;99625.78;5036047;28;20180;-76
2021/05/17 09:14:13;;;;;;;3.77;1.17;;;;;;;15.21;58.77;99629.31;5035887;28;20160;-76
2021/05/17 09:16:57;;;;;;;2.03;0.83;;;;;;;15.08;59.77;99626.03;5036937;28;20199;-76
2021/05/17 09:19:23;;;;;;;3.33;0.90;;;;;;;15.09;61.09;99629.59;5036227;28;20227;-76
2021/05/17 09:21:58;;;;;;;2.20;0.90;;;;;;;14.84;60.06;99630.94;5037300;28;20169;-75
2021/05/17 09:24:49;;;;;;;1.80;1.00;;;;;;;15.01;61.17;99632.97;5036983;28;20178;-76
2021/05/17 09:27:29;;;;;;;4.47;1.17;;;;;;;16.18;57.73;99629.28;5035242;28;20188;-76
2021/05/17 09:29:56;;;;;;;2.20;0.90;;;;;;;16.14;56.42;99631.41;5035744;28;20165;-76
2021/05/17 09:32:26;;;;;;;0.90;0.70;;;;;;;16.48;54.77;99636.28;5035708;28;20271;-76
2021/05/17 09:35:05;;;;;;;0.83;0.60;;;;;;;15.54;56.58;99629.91;5035505;28;20185;-74
2021/05/17 09:37:41;;;;;;;1.83;0.80;;;;;;;15.90;56.38;99642.66;5036436;28;20179;-76
2021/05/17 09:40:16;;;;;;;2.73;1.20;;;;;;;15.70;57.73;99651.75;5042026;28;20179;-77
2021/05/17 09:42:41;;;;;;;4.20;1.07;;;;;;;15.75;58.39;99656.69;5038510;28;20164;-75
2021/05/17 09:47:33;;;;;;;2.43;1.40;;;;;;;14.32;67.43;99668.56;5056540;22;20588;-72
2021/05/17 09:50:01;;;;;;;4.73;1.10;;;;;;;13.26;72.22;99677.63;5034990;28;20188;-73
2021/05/17 09:52:31;;;;;;;3.97;1.77;;;;;;;12.55;77.83;99686.94;5033821;28;20536;-73
2021/05/17 09:55:05;;;;;;;3.90;1.90;;;;;;;12.05;83.44;99668.50;5033413;28;20179;-72
2021/05/17 09:57:42;;;;;;;2.40;1.50;;;;;;;12.01;84.21;99672.41;5032998;28;20246;-72
2021/05/17 10:00:15;;;;;;;2.07;0.80;;;;;;;11.71;87.95;99672.88;5016231;28;20199;-72
2021/05/17 10:02:46;;;;;;;3.23;1.10;;;;;;;11.79;89.23;99673.19;5033284;28;20168;-72
2021/05/17 10:05:21;;;;;;;1.10;0.73;;;;;;;12.10;82.23;99679.72;5032973;28;20496;-72
2021/05/17 10:07:55;;;;;;;2.40;0.80;;;;;;;12.18;87.25;99677.28;5016393;28;20313;-72
2021/05/17 10:10:23;;;;;;;3.37;1.00;;;;;;;11.90;88.94;99677.72;5017610;28;20825;-72
2021/05/17 10:12:50;;;;;;;3.03;1.30;;;;;;;11.87;90.27;99675.25;5033158;28;20173;-71
2021/05/17 10:15:16;;;;;;;2.00;0.80;;;;;;;11.73;91.46;99667.41;5032880;28;20176;-71
2021/05/17 10:17:43;;;;;;;1.63;1.03;;;;;;;11.30;91.43;99673.31;5033067;28;20184;-72
2021/05/17 10:20:11;;;;;;;2.13;0.83;;;;;;;11.98;95.02;99667.28;5034276;28;20169;-72
2021/05/17 10:22:36;;;;;;;2.13;1.30;;;;;;;12.71;93.34;99672.22;5033805;28;20172;-71
2021/05/17 10:25:05;;;;;;;1.90;0.87;;;;;;;13.09;89.32;99671.81;5034009;28;20219;-71
2021/05/17 10:27:31;;;;;;;1.87;0.87;;;;;;;12.13;89.14;99668.78;5016126;28;20230;-71
2021/05/17 10:30:00;;;;;;;3.60;1.20;;;;;;;12.71;93.50;99663.34;5032822;28;20192;-71
2021/05/17 10:32:55;;;;;;;1.50;0.83;;;;;;;12.68;89.98;99655.56;5034001;28;20172;-72
2021/05/17 10:35:35;;;;;;;1.37;0.90;;;;;;;13.43;74.99;99655.66;5030511;28;20703;-72
2021/05/17 10:38:22;;;;;;;2.33;0.80;;;;;;;14.23;69.14;99644.38;5034139;28;20621;-72
2021/05/17 10:40:51;;;;;;;3.17;0.70;;;;;;;14.46;66.82;99647.75;5033618;28;20244;-71
2021/05/17 10:43:54;;;;;;;1.50;1.00;;;;;;;15.41;64.49;99648.16;5016447;28;20546;-71
2021/05/17 10:46:38;;;;;;;2.83;1.03;;;;;;;15.61;63.43;99649.91;5032330;28;20222;-71
2021/05/17 10:49:35;;;;;;;1.60;0.80;;;;;;;16.58;61.03;99662.16;5032260;28;20180;-72
2021/05/17 10:52:04;;;;;;;1.37;0.80;;;;;;;17.13;57.97;99656.00;5032467;28;20192;-72
2021/05/17 10:54:43;;;;;;;2.00;0.70;;;;;;;17.50;59.88;99658.56;5032569;28;20180;-72
2021/05/17 10:57:27;;;;;;;1.73;0.77;;;;;;;17.80;55.72;99644.69;5032522;28;20564;-72
2021/05/17 11:02:43;;;;;;;2.77;0.73;;;;;;;20.55;46.68;99650.34;5033730;28;20183;-72
2021/05/17 11:05:18;;;;;;;3.63;0.70;;;;;;;21.89;43.60;99659.13;5032111;28;20203;-72
2021/05/17 11:07:58;;;;;;;2.07;0.70;;;;;;;24.11;35.83;99648.91;5016094;28;20174;-73
2021/05/17 11:10:25;;;;;;;4.43;0.70;;;;;;;25.60;32.80;99655.66;5033241;28;20259;-72
2021/05/17 11:12:59;;;;;;;1.50;0.63;;;;;;;25.53;31.09;99647.47;5033138;28;20286;-73
2021/05/17 11:15:26;;;;;;;1.40;0.67;;;;;;;25.99;31.08;99647.56;5033286;28;20260;-73
2021/05/17 11:17:54;;;;;;;1.20;0.50;;;;;;;22.54;36.86;99631.38;5033381;28;20540;-73
2021/05/17 11:20:38;;;;;;;1.90;1.30;;;;;;;25.69;31.90;99652.59;5033611;28;20168;-73
2021/05/17 11:23:03;;;;;;;2.40;1.20;;;;;;;23.70;35.40;99649.59;5033089;28;20172;-72
2021/05/17 11:25:50;;;;;;;4.13;2.10;;;;;;;21.08;40.23;99662.31;5033294;28;20262;-72
2021/05/17 11:28:16;;;;;;;1.50;0.50;;;;;;;19.74;43.70;99656.66;5032332;28;20644;-73
2021/05/17 11:30:43;;;;;;;1.90;0.70;;;;;;;19.72;44.64;99655.13;5032053;28;20206;-73
2021/05/17 11:33:16;;;;;;;3.00;1.60;;;;;;;20.24;43.48;99655.59;5032012;28;20723;-73
2021/05/17 11:36:01;;;;;;;1.77;1.10;;;;;;;22.88;36.96;99662.63;5032066;28;20702;-73
2021/05/17 11:38:26;;;;;;;2.37;0.90;;;;;;;24.99;32.68;99661.97;5036736;28;20156;-71
2021/05/17 11:40:52;;;;;;;2.60;1.00;;;;;;;25.34;30.95;99654.56;5033099;28;20183;-72
2021/05/17 11:43:18;;;;;;;0.80;0.67;;;;;;;25.15;31.93;99655.31;5033186;28;20168;-73
2021/05/17 11:45:44;;;;;;;1.63;0.67;;;;;;;25.21;32.33;99666.25;5032077;28;20200;-71
2021/05/17 11:48:09;;;;;;;2.00;0.60;;;;;;;24.80;31.66;99659.94;5015956;28;20661;-72